Time;durP1;ratioP1;P1;durP2;ratioP2;P2;SDS_P1;SDS_P2;PMS_P1;PMS_P2;Temp;Humidity;BMP_temperature;BMP_pressure;BME280_temperature;BME280_humidity;BME280_pressure;Samples;Min_cycle;Max_cycle;Signal;HPM_P1;HPM_P2
2024/01/14 00:01:41;;;;;;;;;;;2.40;99.90;;;;;;5031976;28;20511;-79
2024/01/14 00:04:06;;;;;;;;;;;2.40;99.90;;;;;;5025633;28;19990;-79
2024/01/14 00:06:32;;;;;;;;;;;2.30;99.90;;;;;;5032716;28;19949;-79
2024/01/14 00:08:57;;;;;;;;;;;2.30;99.90;;;;;;5043758;28;20408;-80
2024/01/14 00:11:23;;;;;;;;;;;2.30;99.90;;;;;;5039708;28;19937;-79
2024/01/14 00:13:48;;;;;;;;;;;2.30;99.90;;;;;;5033059;28;19948;-79
2024/01/14 00:16:14;;;;;;;;;;;2.20;99.90;;;;;;5032538;28;19997;-79
2024/01/14 00:18:39;;;;;;;;;;;2.30;99.90;;;;;;5032739;28;19944;-79
2024/01/14 00:21:05;;;;;;;;;;;2.20;99.90;;;;;;5032113;28;19941;-79
2024/01/14 00:23:30;;;;;;;;;;;2.20;99.90;;;;;;5033239;28;19967;-80
2024/01/14 00:25:56;;;;;;;;;;;2.20;99.90;;;;;;5034909;28;19993;-79
2024/01/14 00:28:21;;;;;;;;;;;2.20;99.90;;;;;;5030739;28;20058;-80
2024/01/14 00:30:47;;;;;;;;;;;2.20;99.90;;;;;;5031629;28;19988;-79
2024/01/14 00:33:12;;;;;;;;;;;2.20;99.90;;;;;;5029813;28;19952;-80
2024/01/14 00:35:38;;;;;;;;;;;2.20;99.90;;;;;;5033117;28;19961;-80
2024/01/14 00:38:03;;;;;;;;;;;2.20;99.90;;;;;;5029445;28;19955;-80
2024/01/14 00:40:29;;;;;;;;;;;2.20;99.90;;;;;;5030627;28;19937;-79
2024/01/14 00:42:55;;;;;;;;;;;2.20;99.90;;;;;;5033330;28;19962;-80
2024/01/14 00:45:21;;;;;;;;;;;2.20;99.90;;;;;;5028975;28;19954;-80
2024/01/14 00:47:46;;;;;;;;;;;2.20;99.90;;;;;;5036567;28;20405;-79
2024/01/14 00:50:12;;;;;;;;;;;2.20;99.90;;;;;;5039047;28;19944;-79
2024/01/14 00:52:37;;;;;;;;;;;2.20;99.90;;;;;;5039905;28;19938;-79
2024/01/14 00:55:03;;;;;;;;;;;2.20;99.90;;;;;;5037542;28;19989;-79
2024/01/14 00:57:29;;;;;;;;;;;2.20;99.90;;;;;;5032016;28;20031;-81
2024/01/14 00:59:55;;;;;;;;;;;2.30;99.90;;;;;;5038475;28;19945;-80
2024/01/14 01:02:20;;;;;;;;;;;2.30;99.90;;;;;;5029523;28;19927;-80
2024/01/14 01:04:46;;;;;;;;;;;2.30;99.90;;;;;;5040985;28;19953;-80
2024/01/14 01:07:11;;;;;;;;;;;2.30;99.90;;;;;;5041680;28;20338;-80
2024/01/14 01:09:37;;;;;;;;;;;2.40;99.90;;;;;;5041350;28;19947;-80
2024/01/14 01:12:02;;;;;;;;;;;2.50;99.90;;;;;;5033338;28;19930;-80
2024/01/14 01:14:28;;;;;;;;;;;2.50;99.90;;;;;;5035621;28;19942;-80
2024/01/14 01:16:53;;;;;;;;;;;2.40;99.90;;;;;;5033250;28;19958;-80
2024/01/14 01:19:19;;;;;;;;;;;2.30;99.90;;;;;;5029582;28;19954;-79
2024/01/14 01:21:44;;;;;;;;;;;2.40;99.90;;;;;;5031640;28;19931;-79
2024/01/14 01:24:14;;;;;;;;;;;2.50;99.90;;;;;;5038193;28;20024;-81
2024/01/14 01:26:40;;;;;;;;;;;2.50;99.90;;;;;;5033099;28;20240;-80
2024/01/14 01:29:05;;;;;;;;;;;2.40;99.90;;;;;;5033674;28;19982;-81
2024/01/14 01:31:31;;;;;;;;;;;2.40;99.90;;;;;;5037167;28;20100;-79
2024/01/14 01:33:56;;;;;;;;;;;2.40;99.90;;;;;;5041667;28;19929;-79
2024/01/14 01:36:22;;;;;;;;;;;2.30;99.90;;;;;;5039180;28;20433;-81
2024/01/14 01:38:48;;;;;;;;;;;2.40;99.90;;;;;;5033526;28;19938;-80
2024/01/14 01:41:13;;;;;;;;;;;2.40;99.90;;;;;;5041508;28;20467;-80
2024/01/14 01:43:39;;;;;;;;;;;2.30;99.90;;;;;;5037748;28;19945;-78
2024/01/14 01:46:06;;;;;;;;;;;2.30;99.90;;;;;;5040228;28;20423;-79
2024/01/14 01:48:33;;;;;;;;;;;2.40;99.90;;;;;;5037134;28;19930;-80
2024/01/14 01:50:59;;;;;;;;;;;2.40;99.90;;;;;;5039724;28;19941;-79
2024/01/14 01:53:25;;;;;;;;;;;2.40;99.90;;;;;;5055181;28;19943;-79
2024/01/14 01:55:52;;;;;;;;;;;2.40;99.90;;;;;;5054079;28;20147;-81
2024/01/14 01:58:18;;;;;;;;;;;2.30;99.90;;;;;;5057432;28;20784;-80
2024/01/14 02:00:43;;;;;;;;;;;2.40;99.90;;;;;;5058420;28;19947;-78
2024/01/14 02:03:10;;;;;;;;;;;2.40;99.90;;;;;;5050317;28;19969;-81
2024/01/14 02:05:38;;;;;;;;;;;2.40;99.90;;;;;;5043220;28;19961;-80
2024/01/14 02:08:05;;;;;;;;;;;2.40;99.90;;;;;;5037151;28;19933;-79
2024/01/14 02:10:30;;;;;;;;;;;2.40;99.90;;;;;;5032506;28;20031;-80
2024/01/14 02:12:56;;;;;;;;;;;2.50;99.90;;;;;;5037167;28;19939;-80
2024/01/14 02:15:21;;;;;;;;;;;2.50;99.90;;;;;;5034863;28;20035;-80
2024/01/14 02:17:47;;;;;;;;;;;2.50;99.90;;;;;;5033600;28;19941;-81
2024/01/14 02:20:14;;;;;;;;;;;2.60;99.90;;;;;;5032974;28;19987;-80
2024/01/14 02:22:40;;;;;;;;;;;2.60;99.90;;;;;;5028689;28;20383;-80
2024/01/14 02:25:06;;;;;;;;;;;2.50;99.90;;;;;;5032363;28;20479;-80
2024/01/14 02:27:32;;;;;;;;;;;2.40;99.90;;;;;;5034820;28;20052;-79
2024/01/14 02:29:58;;;;;;;;;;;2.40;99.90;;;;;;5032506;28;20388;-80
2024/01/14 02:32:23;;;;;;;;;;;2.40;99.90;;;;;;5017688;28;20117;-80
2024/01/14 02:34:49;;;;;;;;;;;2.40;99.90;;;;;;5028648;28;19968;-80
2024/01/14 02:37:14;;;;;;;;;;;2.50;99.90;;;;;;5038074;28;19959;-80
2024/01/14 02:39:40;;;;;;;;;;;2.40;99.90;;;;;;5040874;28;20204;-78
2024/01/14 02:42:05;;;;;;;;;;;2.50;99.90;;;;;;5034274;28;20044;-80
2024/01/14 02:44:31;;;;;;;;;;;2.50;99.90;;;;;;5041516;28;20040;-80
2024/01/14 02:46:56;;;;;;;;;;;2.60;99.90;;;;;;5038800;28;20318;-79
2024/01/14 02:49:22;;;;;;;;;;;2.70;99.90;;;;;;5043801;28;20018;-80
2024/01/14 02:51:47;;;;;;;;;;;2.60;99.90;;;;;;5037485;28;20229;-81
2024/01/14 02:54:13;;;;;;;;;;;2.40;99.90;;;;;;5036938;28;19939;-80
2024/01/14 02:56:38;;;;;;;;;;;2.40;99.90;;;;;;5033206;28;20013;-81
2024/01/14 02:59:04;;;;;;;;;;;2.40;99.90;;;;;;5032661;28;19932;-80
2024/01/14 03:01:30;;;;;;;;;;;2.30;99.90;;;;;;5031050;28;19936;-80
2024/01/14 03:03:56;;;;;;;;;;;2.40;99.90;;;;;;5038544;28;19952;-80
2024/01/14 03:06:21;;;;;;;;;;;2.40;99.90;;;;;;5038084;28;20335;-80
2024/01/14 03:08:47;;;;;;;;;;;2.50;99.90;;;;;;5032033;28;20389;-80
2024/01/14 03:11:12;;;;;;;;;;;2.60;99.90;;;;;;5034912;28;20142;-79
2024/01/14 03:13:38;;;;;;;;;;;2.50;99.90;;;;;;5029680;28;20183;-79
2024/01/14 03:16:03;;;;;;;;;;;2.40;99.90;;;;;;5026864;28;20106;-81
2024/01/14 03:18:29;;;;;;;;;;;2.30;99.90;;;;;;5032464;28;19940;-81
2024/01/14 03:20:54;;;;;;;;;;;2.30;99.90;;;;;;5031714;28;19976;-81
2024/01/14 03:23:20;;;;;;;;;;;2.40;99.90;;;;;;5029048;28;19997;-80
2024/01/14 03:25:45;;;;;;;;;;;2.40;99.90;;;;;;5038307;28;20623;-79
2024/01/14 03:28:11;;;;;;;;;;;2.40;99.90;;;;;;5033423;28;19984;-80
2024/01/14 03:30:36;;;;;;;;;;;2.40;99.90;;;;;;5040058;28;20377;-79
2024/01/14 03:33:02;;;;;;;;;;;2.30;99.90;;;;;;5022987;28;21911;-81
2024/01/14 03:35:27;;;;;;;;;;;2.30;99.90;;;;;;5034816;28;20295;-80
2024/01/14 03:37:53;;;;;;;;;;;2.30;99.90;;;;;;5029992;28;20023;-80
2024/01/14 03:40:19;;;;;;;;;;;2.30;99.90;;;;;;5027592;28;19938;-80
2024/01/14 03:42:44;;;;;;;;;;;2.30;99.90;;;;;;5028187;28;19945;-80
2024/01/14 03:45:09;;;;;;;;;;;2.30;99.90;;;;;;5028754;28;20015;-80
2024/01/14 03:47:35;;;;;;;;;;;2.30;99.90;;;;;;5027802;28;19940;-81
2024/01/14 03:50:01;;;;;;;;;;;2.30;99.90;;;;;;5032227;28;20345;-80
2024/01/14 03:52:26;;;;;;;;;;;2.30;99.90;;;;;;5027932;28;19931;-79
2024/01/14 03:54:52;;;;;;;;;;;2.30;99.90;;;;;;5035241;28;20404;-80
2024/01/14 03:57:17;;;;;;;;;;;2.20;99.90;;;;;;5035048;28;20003;-80
2024/01/14 03:59:43;;;;;;;;;;;2.30;99.90;;;;;;5035097;28;19964;-80
2024/01/14 04:02:08;;;;;;;;;;;2.40;99.90;;;;;;5031800;28;19932;-80
2024/01/14 04:04:34;;;;;;;;;;;2.40;99.90;;;;;;5037869;28;19964;-80
2024/01/14 04:07:00;;;;;;;;;;;2.50;99.90;;;;;;5035068;28;19947;-81
2024/01/14 04:09:25;;;;;;;;;;;2.60;99.90;;;;;;5034895;28;19933;-79
2024/01/14 04:11:51;;;;;;;;;;;2.60;99.90;;;;;;5037350;28;20011;-79
2024/01/14 04:14:16;;;;;;;;;;;2.70;99.90;;;;;;5042840;28;20369;-80
2024/01/14 04:16:42;;;;;;;;;;;2.70;99.90;;;;;;5051112;28;20060;-79
2024/01/14 04:19:07;;;;;;;;;;;2.70;99.90;;;;;;5068133;28;19956;-81
2024/01/14 04:21:33;;;;;;;;;;;2.70;99.90;;;;;;5061868;28;20842;-78
2024/01/14 04:23:59;;;;;;;;;;;2.70;99.90;;;;;;5059172;28;19951;-79
2024/01/14 04:26:25;;;;;;;;;;;2.70;99.90;;;;;;5044496;28;19962;-79
2024/01/14 04:28:51;;;;;;;;;;;2.80;99.90;;;;;;5040675;28;19933;-81
2024/01/14 04:31:16;;;;;;;;;;;2.80;99.90;;;;;;5035306;28;19936;-80
2024/01/14 04:33:42;;;;;;;;;;;2.80;99.90;;;;;;5036809;28;19931;-80
2024/01/14 04:36:08;;;;;;;;;;;2.80;99.90;;;;;;5033288;28;19984;-78
2024/01/14 04:38:34;;;;;;;;;;;2.90;99.90;;;;;;5034305;28;19969;-80
2024/01/14 04:40:59;;;;;;;;;;;3.00;99.90;;;;;;5034942;28;19926;-81
2024/01/14 04:43:25;;;;;;;;;;;3.00;99.90;;;;;;5035286;28;19955;-80
2024/01/14 04:45:50;;;;;;;;;;;2.90;99.90;;;;;;5037884;28;20454;-80
2024/01/14 04:48:17;;;;;;;;;;;2.70;99.90;;;;;;5035285;28;20154;-80
2024/01/14 04:50:43;;;;;;;;;;;2.70;99.90;;;;;;5037991;28;19932;-80
2024/01/14 04:53:08;;;;;;;;;;;2.70;99.90;;;;;;5034328;28;20032;-81
2024/01/14 04:55:34;;;;;;;;;;;2.60;99.90;;;;;;5033989;28;19978;-80
2024/01/14 04:58:00;;;;;;;;;;;2.60;99.90;;;;;;5034793;28;19932;-79
2024/01/14 05:00:26;;;;;;;;;;;2.70;99.90;;;;;;5033699;28;19928;-80
2024/01/14 05:02:51;;;;;;;;;;;2.60;99.90;;;;;;5033770;28;19966;-80
2024/01/14 05:05:17;;;;;;;;;;;2.60;99.90;;;;;;5033443;28;20029;-80
2024/01/14 05:07:42;;;;;;;;;;;2.60;99.90;;;;;;5023623;28;20379;-80
2024/01/14 05:10:08;;;;;;;;;;;2.50;99.90;;;;;;5026205;28;19949;-80
2024/01/14 05:12:34;;;;;;;;;;;2.50;99.90;;;;;;5032979;28;20308;-80
2024/01/14 05:15:00;;;;;;;;;;;2.50;99.90;;;;;;5034752;28;19962;-78
2024/01/14 05:17:26;;;;;;;;;;;2.60;99.90;;;;;;5031079;28;19961;-78
2024/01/14 05:19:51;;;;;;;;;;;2.60;99.90;;;;;;5036906;28;20506;-78
2024/01/14 05:22:17;;;;;;;;;;;2.50;99.90;;;;;;5038351;28;20361;-79
2024/01/14 05:24:42;;;;;;;;;;;2.50;99.90;;;;;;5038204;28;20272;-79
2024/01/14 05:27:09;;;;;;;;;;;2.60;99.90;;;;;;5029420;28;20330;-78
2024/01/14 05:29:38;;;;;;;;;;;2.50;99.90;;;;;;5032907;28;21064;-79
2024/01/14 05:32:04;;;;;;;;;;;2.50;99.90;;;;;;5033047;28;19982;-79
2024/01/14 05:34:30;;;;;;;;;;;2.50;99.90;;;;;;5034342;28;20403;-80
2024/01/14 05:36:56;;;;;;;;;;;2.50;99.90;;;;;;5036361;28;19960;-79
2024/01/14 05:39:22;;;;;;;;;;;2.50;99.90;;;;;;5034472;28;20036;-79
2024/01/14 05:41:47;;;;;;;;;;;2.50;99.90;;;;;;5035965;28;19947;-79
2024/01/14 05:44:12;;;;;;;;;;;2.50;99.90;;;;;;5025694;28;20064;-81
2024/01/14 05:46:38;;;;;;;;;;;2.50;99.90;;;;;;5035630;28;19947;-80
2024/01/14 05:49:04;;;;;;;;;;;2.50;99.90;;;;;;5041607;28;19931;-81
2024/01/14 05:51:30;;;;;;;;;;;2.50;99.90;;;;;;5041032;28;20232;-80
2024/01/14 05:53:56;;;;;;;;;;;2.50;99.90;;;;;;5041090;28;19936;-79
2024/01/14 05:56:23;;;;;;;;;;;2.40;99.90;;;;;;5041493;28;19953;-80
2024/01/14 05:58:48;;;;;;;;;;;2.40;99.90;;;;;;5043732;28;19939;-80
2024/01/14 06:01:14;;;;;;;;;;;2.50;99.90;;;;;;5040479;28;20416;-81
2024/01/14 06:03:39;;;;;;;;;;;2.40;99.90;;;;;;5037501;28;19960;-80
2024/01/14 06:06:05;;;;;;;;;;;2.50;99.90;;;;;;5039474;28;20333;-80
2024/01/14 06:08:31;;;;;;;;;;;2.40;99.90;;;;;;5040020;28;20311;-80
2024/01/14 06:10:56;;;;;;;;;;;2.50;99.90;;;;;;5021816;28;19944;-80
2024/01/14 06:13:22;;;;;;;;;;;2.50;99.90;;;;;;5036757;28;20003;-81
2024/01/14 06:15:48;;;;;;;;;;;2.50;99.90;;;;;;5031275;28;19951;-80
2024/01/14 06:18:13;;;;;;;;;;;2.50;99.90;;;;;;5034895;28;19941;-78
2024/01/14 06:20:39;;;;;;;;;;;2.50;99.90;;;;;;5038661;28;19943;-81
2024/01/14 06:23:04;;;;;;;;;;;2.50;99.90;;;;;;5028754;28;19942;-80
2024/01/14 06:25:30;;;;;;;;;;;2.50;99.90;;;;;;5035602;28;19952;-79
2024/01/14 06:27:56;;;;;;;;;;;2.50;99.90;;;;;;5031033;28;20090;-80
2024/01/14 06:30:21;;;;;;;;;;;2.50;99.90;;;;;;5032343;28;20048;-81
2024/01/14 06:32:47;;;;;;;;;;;2.50;99.90;;;;;;5038239;28;19940;-81
2024/01/14 06:35:12;;;;;;;;;;;2.50;99.90;;;;;;5040345;28;20187;-82
2024/01/14 06:37:38;;;;;;;;;;;2.50;99.90;;;;;;5038168;28;20041;-80
2024/01/14 06:40:05;;;;;;;;;;;2.50;99.90;;;;;;5037764;28;20297;-80
2024/01/14 06:42:30;;;;;;;;;;;2.40;99.90;;;;;;5043604;28;19936;-81
2024/01/14 06:44:56;;;;;;;;;;;2.50;99.90;;;;;;5061153;28;19975;-78
2024/01/14 06:47:21;;;;;;;;;;;2.60;99.90;;;;;;5060137;28;19964;-80
2024/01/14 06:49:51;;;;;;;;;;;2.60;99.90;;;;;;5053127;28;20372;-79
2024/01/14 06:52:22;;;;;;;;;;;2.70;99.90;;;;;;5046381;28;20037;-79
2024/01/14 06:54:47;;;;;;;;;;;2.80;99.90;;;;;;5037317;28;20412;-79
2024/01/14 06:57:13;;;;;;;;;;;2.80;99.90;;;;;;5041643;28;19973;-80
2024/01/14 06:59:42;;;;;;;;;;;2.70;99.90;;;;;;5034676;28;19941;-80
2024/01/14 07:02:08;;;;;;;;;;;2.80;99.90;;;;;;5036192;28;19964;-80
2024/01/14 07:04:33;;;;;;;;;;;2.80;99.90;;;;;;5036059;28;20284;-79
2024/01/14 07:06:59;;;;;;;;;;;2.70;99.90;;;;;;5034082;28;20679;-79
2024/01/14 07:09:24;;;;;;;;;;;2.60;99.90;;;;;;5036166;28;19938;-79
2024/01/14 07:11:50;;;;;;;;;;;2.60;99.90;;;;;;5036358;28;19937;-81
2024/01/14 07:14:15;;;;;;;;;;;2.70;99.90;;;;;;5040824;28;20032;-80
2024/01/14 07:16:41;;;;;;;;;;;2.70;99.90;;;;;;5034720;28;20415;-81
2024/01/14 07:19:06;;;;;;;;;;;2.60;99.90;;;;;;5031816;28;19947;-79
2024/01/14 07:21:32;;;;;;;;;;;2.70;99.90;;;;;;5025952;28;20002;-79
2024/01/14 07:23:57;;;;;;;;;;;2.60;99.90;;;;;;5013105;28;20008;-80
2024/01/14 07:26:23;;;;;;;;;;;2.60;99.90;;;;;;5034419;28;19959;-80
2024/01/14 07:28:51;;;;;;;;;;;2.60;99.90;;;;;;5034784;28;19982;-80
2024/01/14 07:31:20;;;;;;;;;;;2.70;99.90;;;;;;5033960;28;20097;-79
2024/01/14 07:33:48;;;;;;;;;;;2.70;99.90;;;;;;5035916;28;19956;-81
2024/01/14 07:36:13;;;;;;;;;;;2.70;99.90;;;;;;5038447;28;19967;-79
2024/01/14 07:38:39;;;;;;;;;;;2.80;99.90;;;;;;5035195;28;20002;-79
2024/01/14 07:41:05;;;;;;;;;;;2.70;99.90;;;;;;5036800;28;19990;-80
2024/01/14 07:43:31;;;;;;;;;;;2.70;99.90;;;;;;5032071;28;20419;-78
2024/01/14 07:45:56;;;;;;;;;;;2.70;99.90;;;;;;5031539;28;19970;-79
2024/01/14 07:48:26;;;;;;;;;;;2.80;99.90;;;;;;5034543;28;20094;-79
2024/01/14 07:50:53;;;;;;;;;;;2.80;99.90;;;;;;5027181;28;20395;-79
2024/01/14 07:53:19;;;;;;;;;;;2.80;99.90;;;;;;5026522;28;19938;-79
2024/01/14 07:55:44;;;;;;;;;;;2.90;99.90;;;;;;5034444;28;20047;-80
2024/01/14 07:58:11;;;;;;;;;;;2.90;99.90;;;;;;5035154;28;19933;-80
2024/01/14 08:00:38;;;;;;;;;;;2.90;99.90;;;;;;5034877;28;19987;-79
2024/01/14 08:03:04;;;;;;;;;;;2.90;99.90;;;;;;5034844;28;19937;-80
2024/01/14 08:05:30;;;;;;;;;;;2.90;99.90;;;;;;5032124;28;19968;-80
2024/01/14 08:07:55;;;;;;;;;;;3.00;99.90;;;;;;5036397;28;19932;-80
2024/01/14 08:10:21;;;;;;;;;;;3.00;99.90;;;;;;5038826;28;19933;-79
2024/01/14 08:12:47;;;;;;;;;;;3.00;99.90;;;;;;5032055;28;20339;-81
2024/01/14 08:15:13;;;;;;;;;;;3.10;99.90;;;;;;5041107;28;19946;-80
2024/01/14 08:17:39;;;;;;;;;;;3.10;99.90;;;;;;5035143;28;19938;-80
2024/01/14 08:20:05;;;;;;;;;;;3.20;99.90;;;;;;5030066;28;19942;-80
2024/01/14 08:22:31;;;;;;;;;;;3.10;99.90;;;;;;5032856;28;19941;-81
2024/01/14 08:24:56;;;;;;;;;;;3.10;99.90;;;;;;5032150;28;20415;-81
2024/01/14 08:27:22;;;;;;;;;;;3.10;99.90;;;;;;5032800;28;19985;-81
2024/01/14 08:29:47;;;;;;;;;;;3.20;99.90;;;;;;5032747;28;21152;-80
2024/01/14 08:32:13;;;;;;;;;;;3.20;99.90;;;;;;5037995;28;20305;-81
2024/01/14 08:34:38;;;;;;;;;;;3.20;99.90;;;;;;5029813;28;19938;-79
2024/01/14 08:37:04;;;;;;;;;;;3.30;99.90;;;;;;5029009;28;19934;-79
2024/01/14 08:39:29;;;;;;;;;;;3.20;99.90;;;;;;5034413;28;19932;-81
2024/01/14 08:41:55;;;;;;;;;;;3.10;99.90;;;;;;5035206;28;20389;-80
2024/01/14 08:44:20;;;;;;;;;;;3.10;99.90;;;;;;5034391;28;20313;-80
2024/01/14 08:46:48;;;;;;;;;;;3.20;99.90;;;;;;5034242;28;20128;-80
2024/01/14 08:49:13;;;;;;;;;;;3.30;99.90;;;;;;5038656;28;19969;-81
2024/01/14 08:51:40;;;;;;;;;;;3.30;99.90;;;;;;5043710;28;19938;-80
2024/01/14 08:54:06;;;;;;;;;;;3.20;99.90;;;;;;5038010;28;19938;-80
2024/01/14 08:56:32;;;;;;;;;;;3.20;99.90;;;;;;5031076;28;20187;-80
2024/01/14 08:58:58;;;;;;;;;;;3.20;99.90;;;;;;5034115;28;19934;-80
2024/01/14 09:01:23;;;;;;;;;;;3.20;99.90;;;;;;5035535;28;20075;-82
2024/01/14 09:03:49;;;;;;;;;;;3.20;99.90;;;;;;5029698;28;20533;-80
2024/01/14 09:06:15;;;;;;;;;;;3.30;99.90;;;;;;5027204;28;20004;-79
2024/01/14 09:08:41;;;;;;;;;;;3.30;99.90;;;;;;5043679;28;19945;-79
2024/01/14 09:11:07;;;;;;;;;;;3.40;99.90;;;;;;5060331;28;19927;-82
2024/01/14 09:13:33;;;;;;;;;;;3.50;99.90;;;;;;5063894;28;19957;-80
2024/01/14 09:15:59;;;;;;;;;;;3.70;99.90;;;;;;5056164;28;19949;-80
2024/01/14 09:18:26;;;;;;;;;;;3.70;99.90;;;;;;5035526;28;19965;-81
2024/01/14 09:20:51;;;;;;;;;;;3.70;99.90;;;;;;5038178;28;19935;-80
2024/01/14 09:23:17;;;;;;;;;;;3.70;99.90;;;;;;5040393;28;19946;-80
2024/01/14 09:25:42;;;;;;;;;;;3.80;99.90;;;;;;5031638;28;19951;-81
2024/01/14 09:28:08;;;;;;;;;;;3.80;99.90;;;;;;5037649;28;19972;-80
2024/01/14 09:30:33;;;;;;;;;;;3.80;99.90;;;;;;5047634;28;19933;-81
2024/01/14 09:33:00;;;;;;;;;;;3.90;99.90;;;;;;5042451;28;21294;-79
2024/01/14 09:35:25;;;;;;;;;;;4.00;99.90;;;;;;5033166;28;19948;-79
2024/01/14 09:37:51;;;;;;;;;;;4.10;99.90;;;;;;5035589;28;19960;-80
2024/01/14 09:40:17;;;;;;;;;;;4.10;99.90;;;;;;5042203;28;20702;-79
2024/01/14 09:42:44;;;;;;;;;;;4.30;99.90;;;;;;5043331;28;19940;-80
2024/01/14 09:45:10;;;;;;;;;;;4.30;99.90;;;;;;5034687;28;19951;-80
2024/01/14 09:47:36;;;;;;;;;;;4.30;99.90;;;;;;5038142;28;19938;-81
2024/01/14 09:50:02;;;;;;;;;;;4.30;99.90;;;;;;5039154;28;19952;-81
2024/01/14 09:52:30;;;;;;;;;;;4.50;99.90;;;;;;5034991;28;19938;-80
2024/01/14 09:54:56;;;;;;;;;;;4.60;99.90;;;;;;5037048;28;19971;-80
2024/01/14 09:57:23;;;;;;;;;;;4.70;99.90;;;;;;5037261;28;20454;-80
2024/01/14 09:59:50;;;;;;;;;;;4.80;99.90;;;;;;5038657;28;19932;-81
2024/01/14 10:02:15;;;;;;;;;;;5.00;99.90;;;;;;5032973;28;20301;-81
2024/01/14 10:04:42;;;;;;;;;;;5.00;99.90;;;;;;5038296;28;19962;-79
2024/01/14 10:07:08;;;;;;;;;;;5.10;99.90;;;;;;5040866;28;19960;-79
2024/01/14 10:09:34;;;;;;;;;;;5.00;99.90;;;;;;5039985;28;20417;-79
2024/01/14 10:11:59;;;;;;;;;;;5.00;99.90;;;;;;5040371;28;19937;-79
2024/01/14 10:14:26;;;;;;;;;;;5.20;99.90;;;;;;5034773;28;20002;-79
2024/01/14 10:16:54;;;;;;;;;;;5.40;99.90;;;;;;5037822;28;19949;-79
2024/01/14 10:19:19;;;;;;;;;;;5.60;99.90;;;;;;5037208;28;19973;-78
2024/01/14 10:21:45;;;;;;;;;;;5.80;99.90;;;;;;5033871;28;19966;-81
2024/01/14 10:24:10;;;;;;;;;;;5.80;99.90;;;;;;5036922;28;19954;-79
2024/01/14 10:26:36;;;;;;;;;;;5.80;99.90;;;;;;5039875;28;19959;-79
2024/01/14 10:29:03;;;;;;;;;;;5.90;99.90;;;;;;5039224;28;20083;-79
2024/01/14 10:31:30;;;;;;;;;;;6.00;99.90;;;;;;5028622;28;20320;-79
2024/01/14 10:33:57;;;;;;;;;;;6.00;99.90;;;;;;5032824;28;19948;-79
2024/01/14 10:36:22;;;;;;;;;;;6.10;99.90;;;;;;5035444;28;19960;-80
2024/01/14 10:38:51;;;;;;;;;;;6.20;99.90;;;;;;5032975;28;19936;-79
2024/01/14 10:41:17;;;;;;;;;;;6.30;99.90;;;;;;5035367;28;19930;-80
2024/01/14 10:43:42;;;;;;;;;;;6.50;99.90;;;;;;5029775;28;19961;-79
2024/01/14 10:46:08;;;;;;;;;;;6.30;99.90;;;;;;5031087;28;19960;-80
2024/01/14 10:48:36;;;;;;;;;;;6.40;99.90;;;;;;5036936;28;19936;-80
2024/01/14 10:51:03;;;;;;;;;;;6.40;99.90;;;;;;5040273;28;19941;-80
2024/01/14 10:53:33;;;;;;;;;;;6.30;99.90;;;;;;5024992;28;19936;-79
2024/01/14 10:56:01;;;;;;;;;;;6.30;99.90;;;;;;5029999;28;20963;-80
2024/01/14 10:58:29;;;;;;;;;;;6.40;99.90;;;;;;5035635;28;19941;-78
2024/01/14 11:00:58;;;;;;;;;;;6.50;99.90;;;;;;5038958;28;20361;-79
2024/01/14 11:03:24;;;;;;;;;;;6.60;99.90;;;;;;5035003;28;20021;-80
2024/01/14 11:05:51;;;;;;;;;;;6.70;99.90;;;;;;5034247;28;20303;-79
2024/01/14 11:08:17;;;;;;;;;;;6.80;99.90;;;;;;5032112;28;20360;-80
2024/01/14 11:10:43;;;;;;;;;;;6.70;99.90;;;;;;5039089;28;20050;-80
2024/01/14 11:13:24;;;;;;;;;;;6.60;99.90;;;;;;5038244;28;20033;-80
2024/01/14 11:15:59;;;;;;;;;;;6.80;99.90;;;;;;5041809;28;20478;-79
2024/01/14 11:18:28;;;;;;;;;;;7.00;99.90;;;;;;5039284;28;20028;-80
2024/01/14 11:21:00;;;;;;;;;;;7.10;99.90;;;;;;5037102;28;19950;-78
2024/01/14 11:23:26;;;;;;;;;;;6.90;99.90;;;;;;5033413;28;19961;-79
2024/01/14 11:25:54;;;;;;;;;;;6.60;99.90;;;;;;5035325;28;19952;-79
2024/01/14 11:28:20;;;;;;;;;;;6.50;99.90;;;;;;5032779;28;19966;-80
2024/01/14 11:30:46;;;;;;;;;;;7.20;99.90;;;;;;5033827;28;20219;-79
2024/01/14 11:33:29;;;;;;;;;;;9.00;99.90;;;;;;5034014;28;19950;-79
2024/01/14 11:35:55;;;;;;;;;;;9.50;99.90;;;;;;5057064;28;20055;-79
2024/01/14 11:38:37;;;;;;;;;;;9.80;99.90;;;;;;5057356;28;19941;-78
2024/01/14 11:41:24;;;;;;;;;;;9.90;99.90;;;;;;5062018;28;19918;-79
2024/01/14 11:43:53;;;;;;;;;;;9.30;99.90;;;;;;5056892;28;19962;-80
2024/01/14 11:46:38;;;;;;;;;;;8.40;99.90;;;;;;5049955;28;19964;-78
2024/01/14 11:49:10;;;;;;;;;;;7.90;99.90;;;;;;5040834;28;19939;-79
2024/01/14 11:51:39;;;;;;;;;;;7.60;99.90;;;;;;5034788;28;19933;-80
2024/01/14 11:54:08;;;;;;;;;;;7.30;99.90;;;;;;5032167;28;19995;-79
2024/01/14 11:56:34;;;;;;;;;;;7.20;99.90;;;;;;5035880;28;19997;-80
2024/01/14 11:58:59;;;;;;;;;;;7.00;99.90;;;;;;5041368;28;19938;-80
2024/01/14 12:01:28;;;;;;;;;;;7.00;99.90;;;;;;5040176;28;19933;-80
2024/01/14 12:04:02;;;;;;;;;;;6.90;99.90;;;;;;5031785;28;20016;-80
2024/01/14 12:06:28;;;;;;;;;;;6.90;99.90;;;;;;5028479;28;19980;-80
2024/01/14 12:09:01;;;;;;;;;;;6.80;99.90;;;;;;5038193;28;19947;-79
2024/01/14 12:11:27;;;;;;;;;;;6.80;99.90;;;;;;5039582;28;19947;-80
2024/01/14 12:13:52;;;;;;;;;;;6.80;99.90;;;;;;5030963;28;21181;-81
2024/01/14 12:16:18;;;;;;;;;;;6.80;99.90;;;;;;5030238;28;20023;-79
2024/01/14 12:18:44;;;;;;;;;;;6.90;99.90;;;;;;5034478;28;19934;-80
2024/01/14 12:21:09;;;;;;;;;;;6.90;99.90;;;;;;5036560;28;19942;-80
2024/01/14 12:23:35;;;;;;;;;;;6.80;99.90;;;;;;5037677;28;20412;-80
2024/01/14 12:26:04;;;;;;;;;;;6.90;99.90;;;;;;5034544;28;19988;-80
2024/01/14 12:28:30;;;;;;;;;;;6.80;99.90;;;;;;5036816;28;19954;-79
2024/01/14 12:30:57;;;;;;;;;;;6.90;99.90;;;;;;5036503;28;19935;-79
2024/01/14 12:33:22;;;;;;;;;;;7.00;99.90;;;;;;5035759;28;19940;-79
2024/01/14 12:35:48;;;;;;;;;;;7.00;99.90;;;;;;5024515;28;19952;-80
2024/01/14 12:38:14;;;;;;;;;;;6.90;99.90;;;;;;5030196;28;19950;-79
2024/01/14 12:40:39;;;;;;;;;;;6.90;99.90;;;;;;5029300;28;19956;-79
2024/01/14 12:43:05;;;;;;;;;;;7.00;99.90;;;;;;5031251;28;20358;-78
2024/01/14 12:45:31;;;;;;;;;;;7.10;99.90;;;;;;5030065;28;20539;-79
2024/01/14 12:47:58;;;;;;;;;;;7.30;99.90;;;;;;5031917;28;19970;-80
2024/01/14 12:50:25;;;;;;;;;;;7.50;99.90;;;;;;5041204;28;19955;-80
2024/01/14 12:52:55;;;;;;;;;;;8.20;99.90;;;;;;5041014;28;20131;-80
2024/01/14 12:55:22;;;;;;;;;;;10.10;99.90;;;;;;5030387;28;20000;-79
2024/01/14 12:57:48;;;;;;;;;;;12.30;91.90;;;;;;5035599;28;19941;-79
2024/01/14 13:00:14;;;;;;;;;;;14.00;62.80;;;;;;5038357;28;19953;-79
2024/01/14 13:02:39;;;;;;;;;;;15.80;52.30;;;;;;5035208;28;19938;-79
2024/01/14 13:05:05;;;;;;;;;;;15.60;49.90;;;;;;5027369;28;19970;-78
2024/01/14 13:07:31;;;;;;;;;;;15.10;52.30;;;;;;5038124;28;19961;-80
2024/01/14 13:09:57;;;;;;;;;;;14.40;55.50;;;;;;5035112;28;20025;-80
2024/01/14 13:12:22;;;;;;;;;;;13.80;57.70;;;;;;5033571;28;20164;-80
2024/01/14 13:14:48;;;;;;;;;;;13.80;56.10;;;;;;5031469;28;20294;-79
2024/01/14 13:17:13;;;;;;;;;;;14.90;56.10;;;;;;5021829;28;19946;-80
2024/01/14 13:19:39;;;;;;;;;;;16.20;49.30;;;;;;5020446;28;20844;-80
2024/01/14 13:22:05;;;;;;;;;;;15.20;50.30;;;;;;5021352;28;19956;-79
2024/01/14 13:24:30;;;;;;;;;;;14.10;53.20;;;;;;5027461;28;19982;-79
2024/01/14 13:26:58;;;;;;;;;;;12.50;63.70;;;;;;5029635;28;20062;-79
2024/01/14 13:29:23;;;;;;;;;;;11.90;76.80;;;;;;5033649;28;19949;-79
2024/01/14 13:31:49;;;;;;;;;;;11.10;80.50;;;;;;5032324;28;19938;-79
2024/01/14 13:34:15;;;;;;;;;;;10.40;91.20;;;;;;5029353;28;19941;-80
2024/01/14 13:36:40;;;;;;;;;;;9.40;99.90;;;;;;5029767;28;19941;-79
2024/01/14 13:39:06;;;;;;;;;;;8.40;99.90;;;;;;5037908;28;20421;-80
2024/01/14 13:41:32;;;;;;;;;;;7.80;99.90;;;;;;5032844;28;19960;-80
2024/01/14 13:43:58;;;;;;;;;;;7.30;99.90;;;;;;5030982;28;19946;-78
2024/01/14 13:46:23;;;;;;;;;;;7.10;99.90;;;;;;5036934;28;19997;-79
2024/01/14 13:48:49;;;;;;;;;;;7.00;99.90;;;;;;5029888;28;20009;-78
2024/01/14 13:51:14;;;;;;;;;;;7.00;99.90;;;;;;5029168;28;19937;-79
2024/01/14 13:53:40;;;;;;;;;;;6.90;99.90;;;;;;5030873;28;19947;-79
2024/01/14 13:56:05;;;;;;;;;;;6.90;99.90;;;;;;5039519;28;19960;-79
2024/01/14 13:58:31;;;;;;;;;;;6.90;99.90;;;;;;5040271;28;19971;-78
2024/01/14 14:00:57;;;;;;;;;;;6.80;99.90;;;;;;5045669;28;19935;-78
2024/01/14 14:03:22;;;;;;;;;;;6.80;99.90;;;;;;5047962;28;19993;-80
2024/01/14 14:05:49;;;;;;;;;;;6.80;99.90;;;;;;5051662;28;19958;-79
2024/01/14 14:08:15;;;;;;;;;;;6.70;99.90;;;;;;5056990;28;19954;-78
2024/01/14 14:10:40;;;;;;;;;;;6.70;99.90;;;;;;5055461;28;19946;-80
2024/01/14 14:13:06;;;;;;;;;;;6.50;99.90;;;;;;5051335;28;20344;-80
2024/01/14 14:15:32;;;;;;;;;;;6.50;99.90;;;;;;5046990;28;19990;-81
2024/01/14 14:17:58;;;;;;;;;;;6.40;99.90;;;;;;5038582;28;19976;-79
2024/01/14 14:20:23;;;;;;;;;;;6.60;99.90;;;;;;5034507;28;20375;-79
2024/01/14 14:22:49;;;;;;;;;;;6.60;99.90;;;;;;5028494;28;20418;-79